Time;durP1;ratioP1;P1;durP2;ratioP2;P2;SDS_P1;SDS_P2;PMS_P1;PMS_P2;Temp;Humidity;BMP_temperature;BMP_pressure;BME280_temperature;BME280_humidity;BME280_pressure;Samples;Min_cycle;Max_cycle;Signal;HPM_P1;HPM_P2
2023/09/20 00:01:53;;;;;;;465.50;127.05;;;;;;;;;;4969105;28;20502;-57
2023/09/20 00:04:18;;;;;;;369.17;121.57;;;;;;;;;;4969632;28;20010;-58
2023/09/20 00:06:45;;;;;;;331.38;119.93;;;;;;;;;;4970885;28;20116;-58
2023/09/20 00:09:11;;;;;;;341.45;119.50;;;;;;;;;;4969376;28;20022;-59
2023/09/20 00:11:36;;;;;;;412.73;124.45;;;;;;;;;;4967987;28;20030;-58
2023/09/20 00:14:01;;;;;;;512.58;130.57;;;;;;;;;;4969640;28;20019;-57
2023/09/20 00:16:29;;;;;;;324.33;120.37;;;;;;;;;;4972971;28;20508;-58
2023/09/20 00:18:54;;;;;;;485.42;127.15;;;;;;;;;;4968357;28;20965;-57
2023/09/20 00:21:20;;;;;;;336.20;119.38;;;;;;;;;;4972400;28;20505;-58
2023/09/20 00:23:45;;;;;;;345.88;120.25;;;;;;;;;;4973715;28;20026;-58
2023/09/20 00:26:11;;;;;;;362.27;120.53;;;;;;;;;;4969602;28;20133;-57
2023/09/20 00:28:38;;;;;;;337.20;118.57;;;;;;;;;;4971042;28;20030;-57
2023/09/20 00:31:05;;;;;;;484.10;129.27;;;;;;;;;;4969307;28;20146;-58
2023/09/20 00:33:30;;;;;;;344.70;120.25;;;;;;;;;;4971587;28;20146;-58
2023/09/20 00:35:55;;;;;;;461.45;126.50;;;;;;;;;;4966948;28;20117;-58
2023/09/20 00:38:20;;;;;;;376.25;121.72;;;;;;;;;;4971208;28;20463;-58
2023/09/20 00:40:47;;;;;;;368.98;120.78;;;;;;;;;;4970491;28;20035;-59
2023/09/20 00:43:13;;;;;;;357.33;119.22;;;;;;;;;;4969609;28;20257;-57
2023/09/20 00:45:40;;;;;;;400.63;122.93;;;;;;;;;;4971752;28;20117;-58
2023/09/20 00:48:07;;;;;;;427.52;124.78;;;;;;;;;;4969307;28;20482;-58
2023/09/20 00:50:33;;;;;;;368.55;120.82;;;;;;;;;;4969502;28;20046;-58
2023/09/20 00:52:59;;;;;;;523.60;129.00;;;;;;;;;;4969504;28;20254;-57
2023/09/20 00:55:25;;;;;;;355.63;121.28;;;;;;;;;;4970058;28;20346;-58
2023/09/20 00:57:53;;;;;;;358.33;122.25;;;;;;;;;;4971041;28;20062;-57
2023/09/20 01:00:21;;;;;;;403.98;124.43;;;;;;;;;;4967440;28;20042;-57
2023/09/20 01:02:57;;;;;;;366.50;124.35;;;;;;;;;;4971805;28;20023;-59
2023/09/20 01:05:25;;;;;;;400.98;124.93;;;;;;;;;;4970961;28;20029;-59
2023/09/20 01:07:57;;;;;;;355.08;123.22;;;;;;;;;;4973277;28;20037;-57
2023/09/20 01:10:23;;;;;;;;;;;;;;;;;;4973520;28;20018;-58
2023/09/20 01:12:52;;;;;;;383.42;127.38;;;;;;;;;;4971504;28;19914;-57
2023/09/20 01:15:17;;;;;;;347.25;120.00;;;;;;;;;;4973048;28;20470;-56
2023/09/20 01:17:43;;;;;;;374.10;118.53;;;;;;;;;;4972332;28;20034;-55
2023/09/20 01:20:12;;;;;;;375.40;124.35;;;;;;;;;;4970262;28;20262;-56
2023/09/20 01:22:37;;;;;;;369.95;124.60;;;;;;;;;;4972068;28;20022;-56
2023/09/20 01:25:04;;;;;;;450.63;128.77;;;;;;;;;;4970920;28;20034;-58
2023/09/20 01:27:31;;;;;;;364.13;125.43;;;;;;;;;;4978111;28;20046;-59
2023/09/20 01:29:57;;;;;;;364.10;125.75;;;;;;;;;;4983560;28;20026;-58
2023/09/20 01:32:22;;;;;;;388.13;126.73;;;;;;;;;;4980251;28;20022;-58
2023/09/20 01:34:47;;;;;;;373.13;125.38;;;;;;;;;;4979173;28;20247;-58
2023/09/20 01:37:13;;;;;;;305.97;122.83;;;;;;;;;;4981248;28;20618;-58
2023/09/20 01:39:38;;;;;;;410.85;127.47;;;;;;;;;;4987554;28;20648;-58
2023/09/20 01:42:03;;;;;;;367.58;125.13;;;;;;;;;;4976330;28;20031;-58
2023/09/20 01:44:29;;;;;;;349.90;126.20;;;;;;;;;;4976364;28;20199;-58
2023/09/20 01:46:54;;;;;;;461.83;131.27;;;;;;;;;;4975411;28;20030;-56
2023/09/20 01:49:21;;;;;;;369.52;128.52;;;;;;;;;;4976380;28;20022;-57
2023/09/20 01:51:46;;;;;;;367.23;126.05;;;;;;;;;;4975679;28;20027;-56
2023/09/20 01:54:11;;;;;;;400.52;129.27;;;;;;;;;;4975134;28;20409;-57
2023/09/20 01:56:36;;;;;;;369.70;126.53;;;;;;;;;;4974603;28;20030;-56
2023/09/20 01:59:05;;;;;;;425.97;130.73;;;;;;;;;;4974725;28;20272;-56
2023/09/20 02:01:30;;;;;;;419.00;130.27;;;;;;;;;;4975687;28;20357;-57
2023/09/20 02:03:56;;;;;;;417.08;129.25;;;;;;;;;;4973697;28;20458;-56
2023/09/20 02:06:22;;;;;;;370.20;127.30;;;;;;;;;;4975795;28;20030;-57
2023/09/20 02:08:48;;;;;;;363.20;128.55;;;;;;;;;;4975710;28;20578;-57
2023/09/20 02:11:13;;;;;;;350.15;126.72;;;;;;;;;;4975121;28;20038;-56
2023/09/20 02:13:39;;;;;;;360.63;127.13;;;;;;;;;;4977441;28;20028;-56
2023/09/20 02:16:05;;;;;;;414.98;129.55;;;;;;;;;;4975413;28;20522;-57
2023/09/20 02:18:32;;;;;;;372.98;127.53;;;;;;;;;;4975952;28;20068;-57
2023/09/20 02:20:57;;;;;;;430.23;131.40;;;;;;;;;;4972952;28;20034;-58
2023/09/20 02:23:22;;;;;;;378.15;127.97;;;;;;;;;;4974495;28;20026;-58
2023/09/20 02:25:48;;;;;;;337.90;126.40;;;;;;;;;;4974507;28;20042;-57
2023/09/20 02:28:14;;;;;;;382.45;128.18;;;;;;;;;;4973184;28;20269;-56
2023/09/20 02:30:39;;;;;;;371.98;126.60;;;;;;;;;;4975799;28;20046;-57
2023/09/20 02:33:06;;;;;;;385.40;127.95;;;;;;;;;;4973948;28;20085;-56
2023/09/20 02:35:32;;;;;;;383.63;127.78;;;;;;;;;;4974367;28;20030;-57
2023/09/20 02:37:59;;;;;;;379.02;128.57;;;;;;;;;;4976020;28;20023;-57
2023/09/20 02:40:24;;;;;;;361.92;126.65;;;;;;;;;;4974189;28;20105;-57
2023/09/20 02:42:51;;;;;;;407.70;129.48;;;;;;;;;;4972913;28;20105;-56
2023/09/20 02:45:17;;;;;;;341.70;126.55;;;;;;;;;;4974032;28;20077;-57
2023/09/20 02:47:43;;;;;;;350.70;125.38;;;;;;;;;;4975218;28;20541;-57
2023/09/20 02:50:16;;;;;;;427.08;129.70;;;;;;;;;;4972862;28;20030;-55
2023/09/20 02:52:42;;;;;;;327.25;125.03;;;;;;;;;;4974016;28;20081;-57
2023/09/20 02:55:08;;;;;;;352.02;126.40;;;;;;;;;;4973527;28;20359;-57
2023/09/20 02:57:34;;;;;;;415.27;127.95;;;;;;;;;;4974034;28;20459;-58
2023/09/20 02:59:59;;;;;;;421.75;130.32;;;;;;;;;;4973524;28;20023;-56
2023/09/20 03:02:24;;;;;;;360.95;126.93;;;;;;;;;;4972717;28;20118;-57
2023/09/20 03:04:53;;;;;;;399.90;129.67;;;;;;;;;;4973080;28;20665;-57
2023/09/20 03:07:19;;;;;;;338.33;125.45;;;;;;;;;;4973383;28;20294;-57
2023/09/20 03:09:45;;;;;;;347.05;126.47;;;;;;;;;;4974358;28;20727;-56
2023/09/20 03:12:10;;;;;;;385.05;127.90;;;;;;;;;;4972971;28;20533;-58
2023/09/20 03:14:38;;;;;;;343.27;124.55;;;;;;;;;;4973128;28;20544;-57
2023/09/20 03:17:04;;;;;;;445.25;131.07;;;;;;;;;;4973745;28;20019;-57
2023/09/20 03:19:31;;;;;;;354.85;126.78;;;;;;;;;;4973839;28;20056;-57
2023/09/20 03:21:56;;;;;;;375.02;128.90;;;;;;;;;;4973604;28;20034;-57
2023/09/20 03:24:21;;;;;;;378.75;128.25;;;;;;;;;;4973378;28;20033;-58
2023/09/20 03:26:46;;;;;;;338.30;124.90;;;;;;;;;;4973678;28;20041;-58
2023/09/20 03:29:12;;;;;;;370.50;128.43;;;;;;;;;;4974892;28;20027;-58
2023/09/20 03:31:38;;;;;;;465.77;131.52;;;;;;;;;;4971876;28;20288;-57
2023/09/20 03:34:05;;;;;;;463.00;131.75;;;;;;;;;;4972441;28;20027;-58
2023/09/20 03:36:32;;;;;;;385.90;128.73;;;;;;;;;;4973222;28;20118;-58
2023/09/20 03:38:58;;;;;;;475.58;133.07;;;;;;;;;;4971080;28;20338;-57
2023/09/20 03:41:24;;;;;;;386.33;129.02;;;;;;;;;;4973395;28;20464;-58
2023/09/20 03:43:49;;;;;;;371.92;129.07;;;;;;;;;;4972712;28;20025;-57
2023/09/20 03:46:14;;;;;;;400.23;128.90;;;;;;;;;;4969682;28;20026;-57
2023/09/20 03:48:40;;;;;;;362.05;128.65;;;;;;;;;;4971958;28;20113;-58
2023/09/20 03:51:06;;;;;;;381.07;128.63;;;;;;;;;;4972345;28;20062;-60
2023/09/20 03:53:34;;;;;;;421.10;129.82;;;;;;;;;;4972537;28;20261;-57
2023/09/20 03:55:59;;;;;;;400.95;128.00;;;;;;;;;;4970796;28;20038;-56
2023/09/20 03:58:25;;;;;;;388.00;127.97;;;;;;;;;;4972696;28;20019;-56
2023/09/20 04:00:51;;;;;;;359.05;126.35;;;;;;;;;;4972296;28;20754;-57
2023/09/20 04:03:17;;;;;;;354.45;127.78;;;;;;;;;;4971808;28;20023;-59
2023/09/20 04:05:43;;;;;;;341.40;125.75;;;;;;;;;;4971357;28;20041;-59
2023/09/20 04:08:08;;;;;;;383.77;128.27;;;;;;;;;;4974056;28;20034;-58
2023/09/20 04:10:34;;;;;;;377.15;127.47;;;;;;;;;;4971270;28;20042;-59
2023/09/20 04:12:59;;;;;;;429.83;130.32;;;;;;;;;;4971148;28;20022;-59
2023/09/20 04:15:25;;;;;;;388.47;126.03;;;;;;;;;;4972706;28;20044;-58
2023/09/20 04:17:51;;;;;;;353.25;125.18;;;;;;;;;;4970343;28;20475;-59
2023/09/20 04:20:20;;;;;;;404.85;128.48;;;;;;;;;;4971765;28;20105;-59
2023/09/20 04:22:46;;;;;;;368.15;124.95;;;;;;;;;;4972464;28;20010;-59
2023/09/20 04:25:11;;;;;;;418.25;128.32;;;;;;;;;;4972330;28;20037;-59
2023/09/20 04:27:36;;;;;;;405.25;126.60;;;;;;;;;;4972819;28;20378;-59
2023/09/20 04:30:02;;;;;;;432.30;130.20;;;;;;;;;;4969662;28;20038;-57
2023/09/20 04:32:27;;;;;;;365.90;126.70;;;;;;;;;;4971734;28;20366;-57
2023/09/20 04:34:53;;;;;;;419.67;130.13;;;;;;;;;;4971789;28;20040;-56
2023/09/20 04:37:19;;;;;;;367.95;126.05;;;;;;;;;;4971160;28;20437;-58
2023/09/20 04:39:44;;;;;;;325.60;125.40;;;;;;;;;;4971224;28;20481;-56
2023/09/20 04:42:13;;;;;;;480.08;133.57;;;;;;;;;;4970351;28;20042;-57
2023/09/20 04:44:39;;;;;;;357.92;125.70;;;;;;;;;;4972753;28;20014;-57
2023/09/20 04:47:04;;;;;;;437.83;130.80;;;;;;;;;;4972508;28;20070;-59
2023/09/20 04:49:29;;;;;;;421.08;130.70;;;;;;;;;;4972493;28;20014;-57
2023/09/20 04:51:54;;;;;;;372.42;128.35;;;;;;;;;;4971978;28;20034;-57
2023/09/20 04:54:21;;;;;;;367.63;129.17;;;;;;;;;;4967930;28;20018;-58
2023/09/20 04:56:47;;;;;;;407.52;131.15;;;;;;;;;;4970267;28;20301;-58
2023/09/20 04:59:16;;;;;;;395.55;128.90;;;;;;;;;;4970833;28;20031;-59
2023/09/20 05:01:44;;;;;;;377.20;128.85;;;;;;;;;;4972913;28;20038;-57
2023/09/20 05:04:13;;;;;;;447.25;131.95;;;;;;;;;;4971004;28;20023;-57
2023/09/20 05:06:40;;;;;;;345.65;129.68;;;;;;;;;;4971805;28;20121;-57
2023/09/20 05:09:05;;;;;;;473.63;134.65;;;;;;;;;;4972225;28;20011;-60
2023/09/20 05:11:30;;;;;;;388.20;131.85;;;;;;;;;;4973697;28;20286;-58
2023/09/20 05:13:56;;;;;;;394.05;131.80;;;;;;;;;;4974310;28;20402;-57
2023/09/20 05:16:21;;;;;;;413.33;134.90;;;;;;;;;;4974375;28;20577;-58
2023/09/20 05:18:46;;;;;;;357.30;128.05;;;;;;;;;;4975789;28;20019;-58
2023/09/20 05:21:12;;;;;;;433.05;132.45;;;;;;;;;;4973748;28;20031;-57
2023/09/20 05:23:40;;;;;;;429.10;132.65;;;;;;;;;;4974852;28;20073;-58
2023/09/20 05:26:05;;;;;;;377.30;129.82;;;;;;;;;;4973898;28;20045;-57
2023/09/20 05:28:30;;;;;;;358.58;130.73;;;;;;;;;;4976408;28;20022;-58
2023/09/20 05:30:57;;;;;;;430.60;133.07;;;;;;;;;;4973612;28;20091;-57
2023/09/20 05:33:22;;;;;;;359.00;128.38;;;;;;;;;;4975362;28;20027;-58
2023/09/20 05:35:49;;;;;;;366.90;128.63;;;;;;;;;;4974913;28;20041;-59
2023/09/20 05:38:17;;;;;;;443.27;133.98;;;;;;;;;;4974867;28;20026;-58
2023/09/20 05:40:43;;;;;;;360.90;129.15;;;;;;;;;;4975671;28;20054;-57
2023/09/20 05:43:09;;;;;;;442.35;132.40;;;;;;;;;;4975124;28;20023;-57
2023/09/20 05:45:35;;;;;;;393.10;129.70;;;;;;;;;;4974101;28;20039;-58
2023/09/20 05:48:03;;;;;;;365.85;128.30;;;;;;;;;;4974176;28;20081;-58
2023/09/20 05:50:35;;;;;;;392.98;134.00;;;;;;;;;;4972356;28;20039;-58
2023/09/20 05:53:01;;;;;;;420.15;130.82;;;;;;;;;;4973906;28;20478;-57
2023/09/20 05:55:31;;;;;;;390.63;130.00;;;;;;;;;;4976351;28;20493;-58
2023/09/20 05:57:56;;;;;;;401.83;129.95;;;;;;;;;;4982829;28;20113;-57
2023/09/20 06:00:22;;;;;;;367.83;128.05;;;;;;;;;;4982775;28;20105;-58
2023/09/20 06:02:49;;;;;;;377.88;128.25;;;;;;;;;;4976997;28;20056;-57
2023/09/20 06:05:15;;;;;;;441.58;130.75;;;;;;;;;;4973877;28;20022;-58
2023/09/20 06:07:40;;;;;;;360.27;123.45;;;;;;;;;;4976841;28;20378;-57
2023/09/20 06:10:09;;;;;;;485.73;130.45;;;;;;;;;;4973365;28;20085;-57
2023/09/20 06:12:34;;;;;;;387.73;123.10;;;;;;;;;;4978768;28;20054;-57
2023/09/20 06:14:59;;;;;;;397.13;121.60;;;;;;;;;;4984777;28;20097;-57
2023/09/20 06:17:29;;;;;;;429.27;122.53;;;;;;;;;;4973198;28;20085;-59
2023/09/20 06:19:56;;;;;;;386.75;118.03;;;;;;;;;;4973361;28;20258;-58
2023/09/20 06:22:22;;;;;;;373.85;115.40;;;;;;;;;;4974773;28;20122;-57
2023/09/20 06:24:48;;;;;;;417.73;117.18;;;;;;;;;;4973066;28;20059;-57
2023/09/20 06:27:13;;;;;;;435.00;116.30;;;;;;;;;;4974280;28;20030;-58
2023/09/20 06:29:38;;;;;;;389.47;112.60;;;;;;;;;;4974018;28;20034;-59
2023/09/20 06:32:04;;;;;;;429.43;114.80;;;;;;;;;;4972760;28;20258;-58
2023/09/20 06:34:30;;;;;;;358.08;110.43;;;;;;;;;;4973596;28;20011;-59
2023/09/20 06:36:55;;;;;;;372.42;108.85;;;;;;;;;;4972782;28;20042;-59
2023/09/20 06:39:20;;;;;;;479.73;113.23;;;;;;;;;;4974044;28;20037;-59
2023/09/20 06:41:46;;;;;;;375.77;103.85;;;;;;;;;;4975407;28;20071;-59
2023/09/20 06:44:12;;;;;;;452.87;108.27;;;;;;;;;;4973674;28;20022;-59
2023/09/20 06:46:38;;;;;;;409.70;102.50;;;;;;;;;;4971669;28;20034;-60
2023/09/20 06:49:03;;;;;;;352.30;97.72;;;;;;;;;;4973974;28;20402;-59
2023/09/20 06:51:30;;;;;;;339.67;94.97;;;;;;;;;;4973236;28;20041;-60
2023/09/20 06:53:58;;;;;;;369.25;93.53;;;;;;;;;;4974079;28;20027;-60
2023/09/20 06:56:24;;;;;;;309.77;89.60;;;;;;;;;;4977595;28;20462;-61
2023/09/20 06:58:50;;;;;;;297.77;87.97;;;;;;;;;;4980090;28;20575;-60
2023/09/20 07:01:15;;;;;;;340.58;86.75;;;;;;;;;;4973862;28;20045;-60
2023/09/20 07:03:40;;;;;;;264.83;81.87;;;;;;;;;;4974138;28;20477;-59
2023/09/20 07:06:05;;;;;;;385.90;183.97;;;;;;;;;;4970288;28;20138;-56
2023/09/20 07:08:31;;;;;;;316.37;83.87;;;;;;;;;;4972119;28;20010;-57
2023/09/20 07:10:57;;;;;;;476.27;374.33;;;;;;;;;;4972956;28;20074;-58
2023/09/20 07:13:25;;;;;;;468.57;218.30;;;;;;;;;;4970498;28;20042;-58
2023/09/20 07:15:51;;;;;;;212.32;72.80;;;;;;;;;;4971330;28;20270;-58
2023/09/20 07:18:17;;;;;;;357.63;164.25;;;;;;;;;;4972362;28;20435;-59
2023/09/20 07:33:33;;;;;;;528.42;396.00;;;;;;;;;;5156207;27;20251;-56
2023/09/20 07:35:58;;;;;;;397.65;252.48;;;;;;;;;;5144626;27;20122;-55
2023/09/20 07:38:28;;;;;;;326.13;82.27;;;;;;;;;;5075617;28;20032;-55
2023/09/20 07:41:08;;;;;;;471.65;374.33;;;;;;;;;;5010576;28;1322462;-55
2023/09/20 07:43:34;;;;;;;334.70;118.68;;;;;;;;;;4972426;28;20103;-56
2023/09/20 07:46:03;;;;;;;524.73;343.10;;;;;;;;;;4992523;28;20064;-56
2023/09/20 07:48:30;;;;;;;424.13;317.10;;;;;;;;;;4988558;28;20265;-54
2023/09/20 07:50:56;;;;;;;400.75;281.58;;;;;;;;;;4988610;28;20121;-56
2023/09/20 07:53:21;;;;;;;538.95;310.60;;;;;;;;;;4989675;28;20429;-56
2023/09/20 07:56:00;;;;;;;337.87;182.23;;;;;;;;;;4989127;28;20034;-55
2023/09/20 07:58:26;;;;;;;583.28;443.60;;;;;;;;;;4987894;28;20049;-55
2023/09/20 08:00:52;;;;;;;496.60;363.30;;;;;;;;;;4984130;28;20064;-55
2023/09/20 08:03:21;;;;;;;426.33;72.05;;;;;;;;;;4987340;28;20431;-55
2023/09/20 08:05:47;;;;;;;594.47;345.35;;;;;;;;;;4987830;28;20034;-53
2023/09/20 08:08:13;;;;;;;574.42;249.30;;;;;;;;;;4989927;28;20088;-55
2023/09/20 08:10:38;;;;;;;493.00;276.13;;;;;;;;;;4985275;28;20023;-55
2023/09/20 08:13:04;;;;;;;569.33;276.85;;;;;;;;;;4970521;28;20491;-54
2023/09/20 08:15:42;;;;;;;588.10;478.85;;;;;;;;;;4968857;28;20399;-57
2023/09/20 08:20:51;;;;;;;485.88;308.65;;;;;;;;;;4967208;28;20141;-58
2023/09/20 09:01:35;;;;;;;469.40;238.75;;;;;;;;;;4961507;28;20046;-55
2023/09/20 09:04:02;;;;;;;345.10;215.57;;;;;;;;;;4964026;28;20058;-56
2023/09/20 09:06:27;;;;;;;419.55;95.72;;;;;;;;;;4961900;28;20023;-56
2023/09/20 09:08:52;;;;;;;288.38;82.47;;;;;;;;;;4962863;28;20086;-55
2023/09/20 09:11:17;;;;;;;513.13;235.20;;;;;;;;;;4960853;28;20113;-55
2023/09/20 09:13:43;;;;;;;413.40;117.40;;;;;;;;;;4962649;28;20460;-57
2023/09/20 09:16:08;;;;;;;290.87;74.70;;;;;;;;;;4963368;28;20097;-56
2023/09/20 09:18:33;;;;;;;362.33;124.67;;;;;;;;;;4961365;28;20289;-55
2023/09/20 09:20:58;;;;;;;316.53;119.80;;;;;;;;;;4963247;28;20121;-56
2023/09/20 09:23:35;;;;;;;447.27;158.40;;;;;;;;;;4960431;28;20133;-55
2023/09/20 09:26:00;;;;;;;523.40;355.17;;;;;;;;;;4962171;28;20034;-57
2023/09/20 09:28:26;;;;;;;434.90;121.32;;;;;;;;;;4963196;28;20026;-56
2023/09/20 09:30:53;;;;;;;290.10;71.47;;;;;;;;;;4967111;28;20034;-54
2023/09/20 09:33:19;;;;;;;368.90;71.57;;;;;;;;;;4979661;28;20022;-55
2023/09/20 09:35:48;;;;;;;371.65;95.22;;;;;;;;;;4980054;28;20508;-56
2023/09/20 09:38:23;;;;;;;299.27;81.72;;;;;;;;;;4979048;28;20029;-54
2023/09/20 09:40:58;;;;;;;450.27;297.65;;;;;;;;;;4979358;28;20335;-56
2023/09/20 09:43:23;;;;;;;444.60;94.28;;;;;;;;;;4987722;28;20041;-55
2023/09/20 09:45:49;;;;;;;349.58;156.60;;;;;;;;;;5019827;28;20472;-55
2023/09/20 09:48:16;;;;;;;448.75;199.88;;;;;;;;;;5020687;28;20492;-54
2023/09/20 09:50:45;;;;;;;408.40;178.00;;;;;;;;;;5024241;28;20037;-55
2023/09/20 09:53:10;;;;;;;379.58;73.78;;;;;;;;;;5021906;28;20074;-56
2023/09/20 09:55:36;;;;;;;315.65;73.90;;;;;;;;;;5019264;28;20037;-56
2023/09/20 09:58:04;;;;;;;448.73;280.13;;;;;;;;;;5024114;28;20041;-57
2023/09/20 10:00:30;;;;;;;577.67;321.38;;;;;;;;;;5022747;28;20203;-54
2023/09/20 10:03:00;;;;;;;528.65;340.80;;;;;;;;;;5041816;28;20017;-55
2023/09/20 10:05:26;;;;;;;697.25;352.92;;;;;;;;;;5041334;28;20066;-54
2023/09/20 10:07:58;;;;;;;262.88;72.93;;;;;;;;;;5041998;28;20012;-55
2023/09/20 10:10:24;;;;;;;737.15;138.95;;;;;;;;;;5041448;28;20020;-57
2023/09/20 10:12:50;;;;;;;523.95;390.58;;;;;;;;;;5042472;28;20013;-56
2023/09/20 10:15:16;;;;;;;321.23;124.20;;;;;;;;;;5040840;28;20401;-54
2023/09/20 10:17:44;;;;;;;470.88;193.80;;;;;;;;;;5041665;28;20112;-54
2023/09/20 10:20:10;;;;;;;347.40;106.97;;;;;;;;;;5044414;28;20020;-55
2023/09/20 10:22:40;;;;;;;473.10;260.80;;;;;;;;;;5038639;28;20863;-55
2023/09/20 10:25:26;;;;;;;634.08;418.80;;;;;;;;;;5055119;28;20021;-55
2023/09/20 10:27:52;;;;;;;410.92;219.60;;;;;;;;;;5040726;28;20111;-55
2023/09/20 10:30:17;;;;;;;626.63;335.13;;;;;;;;;;5036567;28;20123;-56
2023/09/20 10:32:45;;;;;;;393.57;107.60;;;;;;;;;;5043931;28;20481;-55
2023/09/20 10:35:29;;;;;;;365.98;150.30;;;;;;;;;;5041108;28;20023;-56
2023/09/20 10:38:20;;;;;;;386.30;95.30;;;;;;;;;;5034962;28;20044;-55
2023/09/20 10:40:45;;;;;;;409.08;145.88;;;;;;;;;;5042417;28;20418;-54
2023/09/20 10:43:14;;;;;;;406.13;118.27;;;;;;;;;;5059741;28;20626;-54
2023/09/20 10:45:40;;;;;;;564.10;334.75;;;;;;;;;;5058417;28;20035;-53
2023/09/20 10:48:14;;;;;;;502.98;318.20;;;;;;;;;;5074369;28;20020;-53
2023/09/20 10:50:49;;;;;;;516.22;124.03;;;;;;;;;;5056825;28;20036;-58
2023/09/20 10:53:19;;;;;;;585.65;304.30;;;;;;;;;;5059681;28;20123;-57
2023/09/20 10:55:44;;;;;;;349.20;86.57;;;;;;;;;;5058728;28;20040;-56
2023/09/20 10:58:09;;;;;;;336.48;77.53;;;;;;;;;;5060452;28;20024;-53
2023/09/20 11:00:35;;;;;;;533.93;111.40;;;;;;;;;;5058178;28;20503;-55
2023/09/20 11:03:07;;;;;;;369.48;116.72;;;;;;;;;;5060654;28;20181;-55
2023/09/20 11:05:33;;;;;;;467.92;94.80;;;;;;;;;;5057851;28;20318;-54
2023/09/20 11:08:06;;;;;;;689.28;488.23;;;;;;;;;;5059756;28;20657;-54
2023/09/20 11:10:32;;;;;;;645.47;369.00;;;;;;;;;;5058845;28;20036;-56
2023/09/20 11:12:57;;;;;;;560.30;327.23;;;;;;;;;;5059409;28;20024;-56
2023/09/20 11:15:23;;;;;;;571.23;322.67;;;;;;;;;;5057964;28;20039;-54
2023/09/20 11:17:49;;;;;;;460.65;274.10;;;;;;;;;;5060497;28;20027;-55
2023/09/20 11:20:14;;;;;;;392.80;159.65;;;;;;;;;;5059235;28;20063;-55
2023/09/20 11:22:41;;;;;;;441.40;154.25;;;;;;;;;;5057392;28;20032;-54
2023/09/20 11:25:07;;;;;;;408.25;194.65;;;;;;;;;;5059000;28;20025;-57
2023/09/20 11:27:34;;;;;;;643.38;285.73;;;;;;;;;;5057361;28;20016;-54
2023/09/20 11:30:04;;;;;;;372.38;106.70;;;;;;;;;;5058503;28;20020;-54
2023/09/20 11:32:29;;;;;;;691.78;341.60;;;;;;;;;;5056456;28;20059;-55
2023/09/20 11:34:55;;;;;;;431.27;206.63;;;;;;;;;;5058371;28;20040;-56
2023/09/20 11:37:22;;;;;;;367.42;107.45;;;;;;;;;;5057877;28;20071;-54
2023/09/20 11:39:47;;;;;;;760.80;475.80;;;;;;;;;;5059919;28;20054;-54
2023/09/20 11:42:26;;;;;;;566.40;401.98;;;;;;;;;;5047193;28;20596;-56
2023/09/20 11:44:58;;;;;;;686.85;307.38;;;;;;;;;;5037248;28;20025;-54
2023/09/20 11:47:24;;;;;;;426.30;159.32;;;;;;;;;;5036450;28;20033;-54
2023/09/20 11:49:50;;;;;;;684.33;492.73;;;;;;;;;;5039369;28;21635;-55
2023/09/20 11:52:20;;;;;;;666.85;185.95;;;;;;;;;;5039332;28;20224;-55
2023/09/20 11:54:45;;;;;;;509.95;105.57;;;;;;;;;;5035147;28;20115;-55
2023/09/20 11:57:15;;;;;;;385.58;103.28;;;;;;;;;;5036908;28;20148;-54
2023/09/20 11:59:41;;;;;;;548.80;110.75;;;;;;;;;;5036034;28;20021;-55
2023/09/20 12:02:08;;;;;;;428.92;151.02;;;;;;;;;;5038632;28;20040;-54
2023/09/20 12:04:33;;;;;;;549.80;120.68;;;;;;;;;;5037750;28;20024;-54
2023/09/20 12:06:59;;;;;;;405.38;101.40;;;;;;;;;;5039574;28;20025;-55
2023/09/20 12:09:24;;;;;;;372.13;95.77;;;;;;;;;;5042891;28;20031;-55
2023/09/20 12:11:50;;;;;;;377.23;91.73;;;;;;;;;;5044643;28;21435;-55
2023/09/20 12:14:15;;;;;;;366.40;92.68;;;;;;;;;;5044297;28;20286;-56
2023/09/20 12:16:47;;;;;;;572.67;101.75;;;;;;;;;;5040578;28;20120;-55
2023/09/20 12:19:12;;;;;;;592.53;205.15;;;;;;;;;;5042249;28;20040;-54
2023/09/20 12:21:37;;;;;;;689.67;308.77;;;;;;;;;;5042253;28;20044;-54
2023/09/20 12:24:03;;;;;;;639.63;305.80;;;;;;;;;;5040889;28;21189;-55
2023/09/20 12:26:28;;;;;;;687.22;300.67;;;;;;;;;;5039190;28;20477;-55
2023/09/20 12:28:53;;;;;;;761.50;353.02;;;;;;;;;;5042510;28;20071;-56
2023/09/20 12:31:23;;;;;;;378.80;91.77;;;;;;;;;;5041894;28;20060;-55
2023/09/20 12:33:49;;;;;;;384.10;93.45;;;;;;;;;;5039093;28;20298;-56
2023/09/20 12:36:14;;;;;;;387.50;100.93;;;;;;;;;;5042124;28;20044;-55
2023/09/20 12:38:40;;;;;;;588.37;183.10;;;;;;;;;;5041194;28;20024;-54
2023/09/20 12:41:08;;;;;;;402.77;94.80;;;;;;;;;;5043685;28;20271;-56
2023/09/20 12:43:33;;;;;;;550.15;108.13;;;;;;;;;;5041143;28;20830;-54
2023/09/20 12:45:59;;;;;;;516.65;274.73;;;;;;;;;;5043314;28;20155;-54
2023/09/20 12:48:24;;;;;;;414.02;109.72;;;;;;;;;;5043449;28;20305;-56
2023/09/20 12:50:49;;;;;;;615.07;401.73;;;;;;;;;;5041425;28;20037;-54
2023/09/20 12:53:15;;;;;;;877.00;479.47;;;;;;;;;;5041959;28;20032;-56
2023/09/20 12:55:40;;;;;;;653.13;182.07;;;;;;;;;;5035817;28;20264;-56
2023/09/20 12:58:06;;;;;;;386.13;96.95;;;;;;;;;;5041046;28;20794;-55
2023/09/20 13:00:32;;;;;;;633.35;211.07;;;;;;;;;;5039747;28;20513;-54
2023/09/20 13:02:59;;;;;;;701.40;343.27;;;;;;;;;;5040332;28;20560;-54
2023/09/20 13:05:24;;;;;;;398.33;104.13;;;;;;;;;;5039999;28;20044;-54
2023/09/20 13:07:50;;;;;;;399.27;112.47;;;;;;;;;;5040294;28;20486;-55
2023/09/20 13:10:15;;;;;;;838.55;432.02;;;;;;;;;;5056351;28;20421;-54
2023/09/20 13:12:41;;;;;;;769.47;286.63;;;;;;;;;;5055303;28;20405;-55
2023/09/20 13:15:14;;;;;;;403.63;100.10;;;;;;;;;;5040135;28;20268;-56
2023/09/20 13:17:40;;;;;;;643.72;113.40;;;;;;;;;;5039441;28;20033;-55
2023/09/20 13:20:05;;;;;;;377.88;99.35;;;;;;;;;;5041470;28;20032;-55
2023/09/20 13:22:31;;;;;;;551.40;133.35;;;;;;;;;;5039783;28;20059;-54
2023/09/20 13:24:56;;;;;;;407.97;92.33;;;;;;;;;;5039880;28;20013;-56
2023/09/20 13:27:22;;;;;;;394.17;110.87;;;;;;;;;;5040393;28;20811;-56
2023/09/20 13:29:48;;;;;;;413.73;95.53;;;;;;;;;;5040696;28;20370;-55
2023/09/20 13:32:13;;;;;;;413.55;108.43;;;;;;;;;;5041082;28;20166;-54
2023/09/20 13:34:38;;;;;;;1255.20;590.28;;;;;;;;;;5038072;28;20374;-55
2023/09/20 13:37:04;;;;;;;608.75;395.83;;;;;;;;;;5041603;28;20029;-53
2023/09/20 13:39:29;;;;;;;696.90;425.63;;;;;;;;;;5039102;28;20044;-54
2023/09/20 13:41:54;;;;;;;476.83;296.40;;;;;;;;;;5041892;28;20287;-57
2023/09/20 13:44:19;;;;;;;703.83;471.23;;;;;;;;;;5040585;28;20070;-55
2023/09/20 13:46:45;;;;;;;558.67;202.40;;;;;;;;;;5038537;28;20370;-57
2023/09/20 13:49:11;;;;;;;382.95;124.90;;;;;;;;;;5041817;28;20033;-55
2023/09/20 13:51:38;;;;;;;915.80;574.42;;;;;;;;;;5039369;28;20044;-55
2023/09/20 13:54:06;;;;;;;386.25;122.25;;;;;;;;;;5039329;28;20020;-54
2023/09/20 13:56:32;;;;;;;367.25;134.57;;;;;;;;;;5040028;28;20258;-55
2023/09/20 13:58:58;;;;;;;329.85;78.53;;;;;;;;;;5042632;28;20063;-56
2023/09/20 14:01:23;;;;;;;314.20;79.60;;;;;;;;;;5041507;28;20068;-54
2023/09/20 14:03:48;;;;;;;546.77;144.50;;;;;;;;;;5038715;28;20263;-54
2023/09/20 14:06:16;;;;;;;337.23;78.57;;;;;;;;;;5040779;28;20268;-56
2023/09/20 14:08:42;;;;;;;436.92;87.72;;;;;;;;;;5040907;28;20877;-54
2023/09/20 14:11:08;;;;;;;306.67;78.95;;;;;;;;;;5041107;28;20029;-56
2023/09/20 14:13:33;;;;;;;335.25;110.00;;;;;;;;;;5039517;28;20017;-55
2023/09/20 14:15:59;;;;;;;328.33;133.50;;;;;;;;;;5040394;28;20722;-56
2023/09/20 14:18:24;;;;;;;335.53;75.43;;;;;;;;;;5040813;28;20025;-55
2023/09/20 14:20:51;;;;;;;471.43;84.30;;;;;;;;;;5039907;28;20033;-55
2023/09/20 14:23:16;;;;;;;442.95;80.57;;;;;;;;;;5039857;28;20033;-54
2023/09/20 14:25:42;;;;;;;520.03;87.43;;;;;;;;;;5036467;28;20139;-55
2023/09/20 14:28:07;;;;;;;441.30;161.05;;;;;;;;;;5044467;28;20746;-57
2023/09/20 14:30:33;;;;;;;333.02;93.00;;;;;;;;;;5042149;28;20123;-54
2023/09/20 14:32:59;;;;;;;381.35;80.57;;;;;;;;;;5042944;28;20051;-55
2023/09/20 14:35:24;;;;;;;476.40;183.82;;;;;;;;;;5042108;28;20020;-56
2023/09/20 14:37:51;;;;;;;418.23;159.40;;;;;;;;;;5042695;28;20032;-56
2023/09/20 14:40:21;;;;;;;361.55;82.53;;;;;;;;;;5043264;28;20027;-56
2023/09/20 14:42:56;;;;;;;364.75;66.45;;;;;;;;;;5041678;28;20321;-55
2023/09/20 14:45:27;;;;;;;920.20;565.90;;;;;;;;;;5041915;28;20029;-55